sensor_id;sensor_type;location;lat;lon;timestamp;P1;durP1;ratioP1;P2;durP2;ratioP2
27706;SDS011;36332;51.384;0.040;2023-06-24T00:01:41;11.77;;;6.50;;
27706;SDS011;36332;51.384;0.040;2023-06-24T00:04:09;10.07;;;6.45;;
27706;SDS011;36332;51.384;0.040;2023-06-24T00:06:37;11.88;;;6.53;;
27706;SDS011;36332;51.384;0.040;2023-06-24T00:09:07;11.07;;;6.45;;
27706;SDS011;36332;51.384;0.040;2023-06-24T00:11:36;7.18;;;6.00;;
27706;SDS011;36332;51.384;0.040;2023-06-24T00:14:04;12.48;;;5.90;;
27706;SDS011;36332;51.384;0.040;2023-06-24T00:16:33;9.00;;;6.18;;
27706;SDS011;36332;51.384;0.040;2023-06-24T00:19:03;12.40;;;6.95;;
27706;SDS011;36332;51.384;0.040;2023-06-24T00:21:31;12.57;;;6.50;;
27706;SDS011;36332;51.384;0.040;2023-06-24T00:23:59;7.15;;;5.82;;
27706;SDS011;36332;51.384;0.040;2023-06-24T00:26:29;11.95;;;6.63;;
27706;SDS011;36332;51.384;0.040;2023-06-24T00:28:57;13.23;;;6.53;;
27706;SDS011;36332;51.384;0.040;2023-06-24T00:31:26;11.23;;;7.10;;
27706;SDS011;36332;51.384;0.040;2023-06-24T00:33:54;8.43;;;6.82;;
27706;SDS011;36332;51.384;0.040;2023-06-24T00:36:23;9.07;;;6.40;;
27706;SDS011;36332;51.384;0.040;2023-06-24T00:38:50;11.25;;;6.47;;
27706;SDS011;36332;51.384;0.040;2023-06-24T00:41:18;9.70;;;6.55;;
27706;SDS011;36332;51.384;0.040;2023-06-24T00:43:47;11.05;;;6.97;;
27706;SDS011;36332;51.384;0.040;2023-06-24T00:46:15;9.70;;;7.43;;
27706;SDS011;36332;51.384;0.040;2023-06-24T00:48:43;12.20;;;6.60;;
27706;SDS011;36332;51.384;0.040;2023-06-24T00:51:10;9.30;;;6.07;;
27706;SDS011;36332;51.384;0.040;2023-06-24T00:53:39;9.05;;;6.65;;
27706;SDS011;36332;51.384;0.040;2023-06-24T00:56:06;11.02;;;7.88;;
27706;SDS011;36332;51.384;0.040;2023-06-24T00:58:34;12.40;;;7.05;;
27706;SDS011;36332;51.384;0.040;2023-06-24T01:01:04;11.93;;;6.72;;
27706;SDS011;36332;51.384;0.040;2023-06-24T01:03:32;10.18;;;7.10;;
27706;SDS011;36332;51.384;0.040;2023-06-24T01:06:01;11.73;;;7.00;;
27706;SDS011;36332;51.384;0.040;2023-06-24T01:08:30;9.32;;;7.15;;
27706;SDS011;36332;51.384;0.040;2023-06-24T01:10:58;10.02;;;6.18;;
27706;SDS011;36332;51.384;0.040;2023-06-24T01:13:27;11.05;;;6.95;;
27706;SDS011;36332;51.384;0.040;2023-06-24T01:15:55;9.60;;;6.85;;
27706;SDS011;36332;51.384;0.040;2023-06-24T01:18:27;12.20;;;6.75;;
27706;SDS011;36332;51.384;0.040;2023-06-24T01:21:03;12.30;;;7.25;;
27706;SDS011;36332;51.384;0.040;2023-06-24T01:31:42;16.70;;;7.05;;
27706;SDS011;36332;51.384;0.040;2023-06-24T01:34:25;10.85;;;7.18;;
27706;SDS011;36332;51.384;0.040;2023-06-24T01:42:44;8.35;;;6.80;;
27706;SDS011;36332;51.384;0.040;2023-06-24T01:45:15;17.35;;;6.95;;
27706;SDS011;36332;51.384;0.040;2023-06-24T01:47:47;9.93;;;7.50;;
27706;SDS011;36332;51.384;0.040;2023-06-24T01:50:16;9.88;;;6.72;;
27706;SDS011;36332;51.384;0.040;2023-06-24T01:52:50;11.40;;;7.25;;
27706;SDS011;36332;51.384;0.040;2023-06-24T01:55:20;10.82;;;7.43;;
27706;SDS011;36332;51.384;0.040;2023-06-24T01:57:50;12.20;;;7.57;;
27706;SDS011;36332;51.384;0.040;2023-06-24T02:00:22;10.93;;;7.05;;
27706;SDS011;36332;51.384;0.040;2023-06-24T02:02:50;9.85;;;7.53;;
27706;SDS011;36332;51.384;0.040;2023-06-24T02:05:20;15.02;;;7.05;;
27706;SDS011;36332;51.384;0.040;2023-06-24T02:07:51;13.10;;;7.22;;
27706;SDS011;36332;51.384;0.040;2023-06-24T02:10:20;10.80;;;7.13;;
27706;SDS011;36332;51.384;0.040;2023-06-24T02:12:50;10.65;;;7.72;;
27706;SDS011;36332;51.384;0.040;2023-06-24T02:15:20;13.52;;;8.10;;
27706;SDS011;36332;51.384;0.040;2023-06-24T02:17:50;10.63;;;7.38;;
27706;SDS011;36332;51.384;0.040;2023-06-24T02:20:19;12.85;;;9.35;;
27706;SDS011;36332;51.384;0.040;2023-06-24T02:22:50;13.45;;;8.57;;
27706;SDS011;36332;51.384;0.040;2023-06-24T02:25:20;13.38;;;8.23;;
27706;SDS011;36332;51.384;0.040;2023-06-24T02:27:49;16.08;;;8.85;;
27706;SDS011;36332;51.384;0.040;2023-06-24T02:30:18;13.25;;;8.43;;
27706;SDS011;36332;51.384;0.040;2023-06-24T02:32:48;12.48;;;8.55;;
27706;SDS011;36332;51.384;0.040;2023-06-24T02:35:16;15.00;;;8.20;;
27706;SDS011;36332;51.384;0.040;2023-06-24T02:37:44;13.45;;;8.07;;
27706;SDS011;36332;51.384;0.040;2023-06-24T02:40:11;10.25;;;8.27;;
27706;SDS011;36332;51.384;0.040;2023-06-24T02:42:41;14.98;;;9.07;;
27706;SDS011;36332;51.384;0.040;2023-06-24T02:45:09;13.13;;;8.07;;
27706;SDS011;36332;51.384;0.040;2023-06-24T02:47:38;18.35;;;9.05;;
27706;SDS011;36332;51.384;0.040;2023-06-24T02:50:08;13.85;;;8.25;;
27706;SDS011;36332;51.384;0.040;2023-06-24T02:52:37;13.57;;;8.45;;
27706;SDS011;36332;51.384;0.040;2023-06-24T02:55:09;16.80;;;8.63;;
27706;SDS011;36332;51.384;0.040;2023-06-24T02:57:49;12.60;;;8.05;;
27706;SDS011;36332;51.384;0.040;2023-06-24T03:03:10;16.05;;;9.55;;
27706;SDS011;36332;51.384;0.040;2023-06-24T03:05:45;16.00;;;10.23;;
27706;SDS011;36332;51.384;0.040;2023-06-24T03:08:16;16.55;;;10.32;;
27706;SDS011;36332;51.384;0.040;2023-06-24T03:10:46;19.70;;;9.32;;
27706;SDS011;36332;51.384;0.040;2023-06-24T03:13:18;14.63;;;10.52;;
27706;SDS011;36332;51.384;0.040;2023-06-24T03:15:52;21.70;;;10.82;;
27706;SDS011;36332;51.384;0.040;2023-06-24T03:18:20;19.42;;;11.55;;
27706;SDS011;36332;51.384;0.040;2023-06-24T03:20:49;21.15;;;12.95;;
27706;SDS011;36332;51.384;0.040;2023-06-24T03:23:19;18.17;;;11.32;;
27706;SDS011;36332;51.384;0.040;2023-06-24T03:25:49;18.75;;;13.35;;
27706;SDS011;36332;51.384;0.040;2023-06-24T03:28:17;20.40;;;13.25;;
27706;SDS011;36332;51.384;0.040;2023-06-24T03:30:51;17.00;;;12.40;;
27706;SDS011;36332;51.384;0.040;2023-06-24T03:33:20;19.02;;;12.32;;
27706;SDS011;36332;51.384;0.040;2023-06-24T03:35:48;20.52;;;13.98;;
27706;SDS011;36332;51.384;0.040;2023-06-24T03:38:20;21.08;;;13.95;;
27706;SDS011;36332;51.384;0.040;2023-06-24T03:40:48;22.15;;;15.05;;
27706;SDS011;36332;51.384;0.040;2023-06-24T03:43:16;26.10;;;15.10;;
27706;SDS011;36332;51.384;0.040;2023-06-24T03:45:44;23.40;;;15.93;;
27706;SDS011;36332;51.384;0.040;2023-06-24T03:48:12;21.42;;;14.88;;
27706;SDS011;36332;51.384;0.040;2023-06-24T03:50:39;29.75;;;16.70;;
27706;SDS011;36332;51.384;0.040;2023-06-24T03:53:07;27.55;;;15.52;;
27706;SDS011;36332;51.384;0.040;2023-06-24T03:55:35;28.98;;;17.20;;
27706;SDS011;36332;51.384;0.040;2023-06-24T03:58:04;24.42;;;16.05;;
27706;SDS011;36332;51.384;0.040;2023-06-24T04:00:33;27.00;;;15.93;;
27706;SDS011;36332;51.384;0.040;2023-06-24T04:03:00;31.67;;;18.48;;
27706;SDS011;36332;51.384;0.040;2023-06-24T04:05:28;28.35;;;17.30;;
27706;SDS011;36332;51.384;0.040;2023-06-24T04:07:56;29.63;;;17.30;;
27706;SDS011;36332;51.384;0.040;2023-06-24T04:10:23;28.63;;;18.20;;
27706;SDS011;36332;51.384;0.040;2023-06-24T04:12:51;34.10;;;19.10;;
27706;SDS011;36332;51.384;0.040;2023-06-24T04:15:19;33.60;;;17.67;;
27706;SDS011;36332;51.384;0.040;2023-06-24T04:17:47;28.40;;;18.20;;
27706;SDS011;36332;51.384;0.040;2023-06-24T04:20:14;32.38;;;18.60;;
27706;SDS011;36332;51.384;0.040;2023-06-24T04:22:42;28.42;;;16.90;;
27706;SDS011;36332;51.384;0.040;2023-06-24T04:25:10;33.80;;;19.30;;
27706;SDS011;36332;51.384;0.040;2023-06-24T04:27:39;28.50;;;18.58;;
27706;SDS011;36332;51.384;0.040;2023-06-24T04:30:08;31.00;;;18.58;;
27706;SDS011;36332;51.384;0.040;2023-06-24T04:32:36;29.67;;;18.35;;
27706;SDS011;36332;51.384;0.040;2023-06-24T04:35:04;35.53;;;19.42;;
27706;SDS011;36332;51.384;0.040;2023-06-24T04:37:36;29.75;;;16.83;;
27706;SDS011;36332;51.384;0.040;2023-06-24T04:40:04;26.60;;;17.65;;
27706;SDS011;36332;51.384;0.040;2023-06-24T04:42:35;29.00;;;16.42;;
27706;SDS011;36332;51.384;0.040;2023-06-24T04:45:03;27.15;;;16.17;;
27706;SDS011;36332;51.384;0.040;2023-06-24T04:47:32;29.63;;;18.35;;
27706;SDS011;36332;51.384;0.040;2023-06-24T04:50:00;28.55;;;17.63;;
27706;SDS011;36332;51.384;0.040;2023-06-24T04:52:28;25.67;;;16.58;;
27706;SDS011;36332;51.384;0.040;2023-06-24T04:54:55;27.33;;;16.48;;
27706;SDS011;36332;51.384;0.040;2023-06-24T04:57:24;26.85;;;16.20;;
27706;SDS011;36332;51.384;0.040;2023-06-24T04:59:56;30.55;;;18.23;;
27706;SDS011;36332;51.384;0.040;2023-06-24T05:02:24;26.30;;;16.73;;
27706;SDS011;36332;51.384;0.040;2023-06-24T05:04:52;25.38;;;17.77;;
27706;SDS011;36332;51.384;0.040;2023-06-24T05:07:20;31.40;;;18.02;;
27706;SDS011;36332;51.384;0.040;2023-06-24T05:09:48;28.98;;;16.95;;
27706;SDS011;36332;51.384;0.040;2023-06-24T05:12:18;29.85;;;17.75;;
27706;SDS011;36332;51.384;0.040;2023-06-24T05:14:50;34.25;;;16.63;;
27706;SDS011;36332;51.384;0.040;2023-06-24T05:17:19;27.00;;;17.15;;
27706;SDS011;36332;51.384;0.040;2023-06-24T05:19:48;26.95;;;17.02;;
27706;SDS011;36332;51.384;0.040;2023-06-24T05:22:16;29.38;;;15.90;;
27706;SDS011;36332;51.384;0.040;2023-06-24T05:24:43;25.83;;;16.00;;
27706;SDS011;36332;51.384;0.040;2023-06-24T05:27:11;24.63;;;16.23;;
27706;SDS011;36332;51.384;0.040;2023-06-24T05:29:39;22.50;;;14.05;;
27706;SDS011;36332;51.384;0.040;2023-06-24T05:32:07;26.02;;;16.40;;
27706;SDS011;36332;51.384;0.040;2023-06-24T05:34:34;22.63;;;14.82;;
27706;SDS011;36332;51.384;0.040;2023-06-24T05:37:02;21.80;;;14.55;;
27706;SDS011;36332;51.384;0.040;2023-06-24T05:39:30;23.00;;;13.48;;
27706;SDS011;36332;51.384;0.040;2023-06-24T05:41:58;20.35;;;14.10;;
27706;SDS011;36332;51.384;0.040;2023-06-24T05:44:27;21.98;;;13.73;;
27706;SDS011;36332;51.384;0.040;2023-06-24T05:46:55;18.83;;;13.63;;
27706;SDS011;36332;51.384;0.040;2023-06-24T05:49:22;18.77;;;13.48;;
27706;SDS011;36332;51.384;0.040;2023-06-24T05:51:50;16.35;;;11.30;;
27706;SDS011;36332;51.384;0.040;2023-06-24T05:54:18;17.77;;;11.75;;
27706;SDS011;36332;51.384;0.040;2023-06-24T05:56:45;19.08;;;11.55;;
27706;SDS011;36332;51.384;0.040;2023-06-24T05:59:13;18.83;;;12.10;;
27706;SDS011;36332;51.384;0.040;2023-06-24T06:01:40;14.50;;;11.27;;
27706;SDS011;36332;51.384;0.040;2023-06-24T06:04:08;17.70;;;11.73;;
27706;SDS011;36332;51.384;0.040;2023-06-24T06:06:35;21.88;;;13.20;;
27706;SDS011;36332;51.384;0.040;2023-06-24T06:09:03;19.17;;;12.10;;
27706;SDS011;36332;51.384;0.040;2023-06-24T06:11:32;18.88;;;11.50;;
27706;SDS011;36332;51.384;0.040;2023-06-24T06:14:00;17.70;;;11.00;;
27706;SDS011;36332;51.384;0.040;2023-06-24T06:16:28;13.38;;;9.80;;
27706;SDS011;36332;51.384;0.040;2023-06-24T06:18:56;14.15;;;10.48;;
27706;SDS011;36332;51.384;0.040;2023-06-24T06:21:24;15.77;;;10.63;;
27706;SDS011;36332;51.384;0.040;2023-06-24T06:23:51;15.07;;;9.88;;
27706;SDS011;36332;51.384;0.040;2023-06-24T06:26:19;15.13;;;9.82;;
27706;SDS011;36332;51.384;0.040;2023-06-24T06:28:46;15.07;;;9.77;;
27706;SDS011;36332;51.384;0.040;2023-06-24T06:31:15;12.98;;;9.38;;
27706;SDS011;36332;51.384;0.040;2023-06-24T06:33:43;10.18;;;8.50;;
27706;SDS011;36332;51.384;0.040;2023-06-24T06:36:11;13.20;;;9.20;;
27706;SDS011;36332;51.384;0.040;2023-06-24T06:38:38;12.50;;;8.32;;
27706;SDS011;36332;51.384;0.040;2023-06-24T06:41:07;13.50;;;8.35;;
27706;SDS011;36332;51.384;0.040;2023-06-24T06:43:34;12.43;;;9.27;;
27706;SDS011;36332;51.384;0.040;2023-06-24T06:46:02;10.60;;;8.15;;
27706;SDS011;36332;51.384;0.040;2023-06-24T06:48:29;13.38;;;8.82;;
27706;SDS011;36332;51.384;0.040;2023-06-24T06:50:57;10.43;;;8.95;;
27706;SDS011;36332;51.384;0.040;2023-06-24T06:53:25;9.98;;;8.13;;
27706;SDS011;36332;51.384;0.040;2023-06-24T06:55:52;13.05;;;8.45;;
27706;SDS011;36332;51.384;0.040;2023-06-24T06:58:20;13.23;;;8.27;;
27706;SDS011;36332;51.384;0.040;2023-06-24T07:00:48;16.27;;;8.35;;
27706;SDS011;36332;51.384;0.040;2023-06-24T07:03:15;11.35;;;7.53;;
27706;SDS011;36332;51.384;0.040;2023-06-24T07:05:43;12.00;;;7.20;;
27706;SDS011;36332;51.384;0.040;2023-06-24T07:08:10;12.68;;;7.82;;
27706;SDS011;36332;51.384;0.040;2023-06-24T07:10:38;10.80;;;7.97;;
27706;SDS011;36332;51.384;0.040;2023-06-24T07:13:06;9.35;;;6.85;;
27706;SDS011;36332;51.384;0.040;2023-06-24T07:15:33;8.90;;;7.68;;
27706;SDS011;36332;51.384;0.040;2023-06-24T07:18:01;9.13;;;5.07;;
27706;SDS011;36332;51.384;0.040;2023-06-24T07:20:29;6.82;;;5.03;;
27706;SDS011;36332;51.384;0.040;2023-06-24T07:22:56;5.85;;;4.95;;
27706;SDS011;36332;51.384;0.040;2023-06-24T07:25:24;5.70;;;4.85;;
27706;SDS011;36332;51.384;0.040;2023-06-24T07:27:52;7.53;;;5.45;;
27706;SDS011;36332;51.384;0.040;2023-06-24T07:30:20;8.40;;;5.25;;
27706;SDS011;36332;51.384;0.040;2023-06-24T07:32:48;7.30;;;5.53;;
27706;SDS011;36332;51.384;0.040;2023-06-24T07:35:15;7.68;;;5.68;;
27706;SDS011;36332;51.384;0.040;2023-06-24T07:37:43;7.43;;;5.93;;
27706;SDS011;36332;51.384;0.040;2023-06-24T07:40:11;8.43;;;6.20;;
27706;SDS011;36332;51.384;0.040;2023-06-24T07:42:38;12.63;;;5.72;;
27706;SDS011;36332;51.384;0.040;2023-06-24T07:45:06;8.95;;;6.30;;
27706;SDS011;36332;51.384;0.040;2023-06-24T07:47:34;9.70;;;6.25;;
27706;SDS011;36332;51.384;0.040;2023-06-24T07:50:02;7.97;;;6.32;;
27706;SDS011;36332;51.384;0.040;2023-06-24T07:52:30;9.35;;;6.15;;
27706;SDS011;36332;51.384;0.040;2023-06-24T07:54:58;13.98;;;6.88;;
27706;SDS011;36332;51.384;0.040;2023-06-24T07:57:26;9.55;;;6.85;;
27706;SDS011;36332;51.384;0.040;2023-06-24T07:59:54;10.82;;;6.72;;
27706;SDS011;36332;51.384;0.040;2023-06-24T08:02:22;9.98;;;6.53;;
27706;SDS011;36332;51.384;0.040;2023-06-24T08:04:53;9.32;;;7.15;;
27706;SDS011;36332;51.384;0.040;2023-06-24T08:07:21;11.85;;;7.05;;
27706;SDS011;36332;51.384;0.040;2023-06-24T08:09:49;11.27;;;7.60;;
27706;SDS011;36332;51.384;0.040;2023-06-24T08:12:17;9.45;;;7.00;;
27706;SDS011;36332;51.384;0.040;2023-06-24T08:14:44;10.93;;;6.93;;
27706;SDS011;36332;51.384;0.040;2023-06-24T08:17:12;11.13;;;7.07;;
27706;SDS011;36332;51.384;0.040;2023-06-24T08:19:39;14.18;;;7.60;;
27706;SDS011;36332;51.384;0.040;2023-06-24T08:22:07;11.27;;;6.78;;
27706;SDS011;36332;51.384;0.040;2023-06-24T08:24:35;10.15;;;7.43;;
27706;SDS011;36332;51.384;0.040;2023-06-24T08:27:04;10.65;;;6.50;;
27706;SDS011;36332;51.384;0.040;2023-06-24T08:29:31;10.23;;;7.15;;
27706;SDS011;36332;51.384;0.040;2023-06-24T08:31:59;9.35;;;6.43;;
27706;SDS011;36332;51.384;0.040;2023-06-24T08:34:27;11.45;;;6.97;;
27706;SDS011;36332;51.384;0.040;2023-06-24T08:36:54;9.23;;;7.03;;
27706;SDS011;36332;51.384;0.040;2023-06-24T08:39:23;15.35;;;7.30;;
27706;SDS011;36332;51.384;0.040;2023-06-24T08:41:50;10.10;;;6.78;;
27706;SDS011;36332;51.384;0.040;2023-06-24T08:44:18;14.02;;;7.47;;
27706;SDS011;36332;51.384;0.040;2023-06-24T08:46:47;9.68;;;7.60;;
27706;SDS011;36332;51.384;0.040;2023-06-24T08:54:30;8.52;;;6.18;;
27706;SDS011;36332;51.384;0.040;2023-06-24T08:57:00;9.45;;;6.53;;
27706;SDS011;36332;51.384;0.040;2023-06-24T08:59:33;10.23;;;6.38;;
27706;SDS011;36332;51.384;0.040;2023-06-24T09:02:02;9.93;;;6.05;;
27706;SDS011;36332;51.384;0.040;2023-06-24T09:04:30;8.70;;;6.45;;
27706;SDS011;36332;51.384;0.040;2023-06-24T09:06:57;9.55;;;6.32;;
27706;SDS011;36332;51.384;0.040;2023-06-24T09:09:25;8.93;;;6.57;;
27706;SDS011;36332;51.384;0.040;2023-06-24T09:11:55;14.68;;;7.13;;
27706;SDS011;36332;51.384;0.040;2023-06-24T09:14:25;12.13;;;6.13;;
27706;SDS011;36332;51.384;0.040;2023-06-24T09:16:54;8.85;;;6.47;;
27706;SDS011;36332;51.384;0.040;2023-06-24T09:19:24;10.43;;;6.63;;
27706;SDS011;36332;51.384;0.040;2023-06-24T09:21:57;7.80;;;5.93;;
27706;SDS011;36332;51.384;0.040;2023-06-24T09:24:35;11.70;;;5.80;;
27706;SDS011;36332;51.384;0.040;2023-06-24T09:27:04;14.15;;;5.97;;
27706;SDS011;36332;51.384;0.040;2023-06-24T09:29:32;11.00;;;6.13;;
27706;SDS011;36332;51.384;0.040;2023-06-24T09:32:04;8.63;;;5.35;;
27706;SDS011;36332;51.384;0.040;2023-06-24T09:34:33;13.13;;;6.10;;
27706;SDS011;36332;51.384;0.040;2023-06-24T09:37:01;9.45;;;5.63;;
27706;SDS011;36332;51.384;0.040;2023-06-24T09:39:34;10.88;;;5.45;;
27706;SDS011;36332;51.384;0.040;2023-06-24T09:42:04;8.23;;;5.28;;
27706;SDS011;36332;51.384;0.040;2023-06-24T09:44:33;8.25;;;5.13;;
27706;SDS011;36332;51.384;0.040;2023-06-24T09:47:01;5.57;;;4.88;;
27706;SDS011;36332;51.384;0.040;2023-06-24T09:49:29;5.15;;;4.68;;
27706;SDS011;36332;51.384;0.040;2023-06-24T09:51:57;7.30;;;4.88;;
27706;SDS011;36332;51.384;0.040;2023-06-24T09:54:27;6.65;;;5.05;;
27706;SDS011;36332;51.384;0.040;2023-06-24T09:57:01;8.57;;;5.28;;
27706;SDS011;36332;51.384;0.040;2023-06-24T09:59:31;6.50;;;4.68;;
27706;SDS011;36332;51.384;0.040;2023-06-24T10:02:02;6.97;;;5.10;;
27706;SDS011;36332;51.384;0.040;2023-06-24T10:04:31;7.80;;;5.43;;
27706;SDS011;36332;51.384;0.040;2023-06-24T10:06:59;6.78;;;4.25;;
27706;SDS011;36332;51.384;0.040;2023-06-24T10:09:27;6.93;;;4.30;;
27706;SDS011;36332;51.384;0.040;2023-06-24T10:11:55;6.03;;;4.22;;
27706;SDS011;36332;51.384;0.040;2023-06-24T10:14:23;7.57;;;4.32;;
27706;SDS011;36332;51.384;0.040;2023-06-24T10:16:51;7.03;;;4.65;;
27706;SDS011;36332;51.384;0.040;2023-06-24T10:19:19;6.03;;;4.25;;
27706;SDS011;36332;51.384;0.040;2023-06-24T10:21:53;5.97;;;3.42;;
27706;SDS011;36332;51.384;0.040;2023-06-24T10:24:29;5.68;;;4.10;;
27706;SDS011;36332;51.384;0.040;2023-06-24T10:27:02;9.00;;;4.38;;
27706;SDS011;36332;51.384;0.040;2023-06-24T10:29:34;6.25;;;4.32;;
27706;SDS011;36332;51.384;0.040;2023-06-24T10:32:06;6.38;;;3.67;;
27706;SDS011;36332;51.384;0.040;2023-06-24T10:39:44;5.53;;;3.72;;
27706;SDS011;36332;51.384;0.040;2023-06-24T10:42:31;23.02;;;18.42;;
27706;SDS011;36332;51.384;0.040;2023-06-24T10:47:40;4.57;;;3.55;;
27706;SDS011;36332;51.384;0.040;2023-06-24T10:50:09;4.40;;;2.90;;
27706;SDS011;36332;51.384;0.040;2023-06-24T10:52:39;4.20;;;3.20;;
27706;SDS011;36332;51.384;0.040;2023-06-24T10:55:09;5.63;;;3.67;;
27706;SDS011;36332;51.384;0.040;2023-06-24T10:57:36;8.38;;;4.30;;
27706;SDS011;36332;51.384;0.040;2023-06-24T11:00:04;7.55;;;3.70;;
27706;SDS011;36332;51.384;0.040;2023-06-24T11:02:32;3.90;;;3.38;;
27706;SDS011;36332;51.384;0.040;2023-06-24T11:05:00;4.20;;;3.50;;
27706;SDS011;36332;51.384;0.040;2023-06-24T11:07:30;5.50;;;3.75;;
27706;SDS011;36332;51.384;0.040;2023-06-24T11:12:38;6.38;;;3.70;;
27706;SDS011;36332;51.384;0.040;2023-06-24T11:15:10;6.15;;;3.83;;
27706;SDS011;36332;51.384;0.040;2023-06-24T11:17:39;6.35;;;3.47;;
27706;SDS011;36332;51.384;0.040;2023-06-24T11:20:09;5.43;;;3.55;;
27706;SDS011;36332;51.384;0.040;2023-06-24T11:22:41;4.50;;;3.15;;
27706;SDS011;36332;51.384;0.040;2023-06-24T11:25:19;5.68;;;3.58;;
27706;SDS011;36332;51.384;0.040;2023-06-24T11:27:51;5.50;;;3.55;;
27706;SDS011;36332;51.384;0.040;2023-06-24T11:30:20;6.60;;;4.03;;
27706;SDS011;36332;51.384;0.040;2023-06-24T11:32:48;4.95;;;2.97;;
27706;SDS011;36332;51.384;0.040;2023-06-24T11:35:17;5.38;;;4.25;;
27706;SDS011;36332;51.384;0.040;2023-06-24T11:37:45;5.63;;;4.00;;
27706;SDS011;36332;51.384;0.040;2023-06-24T11:40:16;6.35;;;3.72;;
27706;SDS011;36332;51.384;0.040;2023-06-24T11:42:47;4.53;;;3.00;;
27706;SDS011;36332;51.384;0.040;2023-06-24T11:45:19;3.10;;;2.67;;
27706;SDS011;36332;51.384;0.040;2023-06-24T11:47:48;3.33;;;2.40;;
27706;SDS011;36332;51.384;0.040;2023-06-24T11:50:16;4.13;;;2.88;;
27706;SDS011;36332;51.384;0.040;2023-06-24T11:52:47;7.43;;;3.35;;
27706;SDS011;36332;51.384;0.040;2023-06-24T11:55:22;3.22;;;2.80;;
27706;SDS011;36332;51.384;0.040;2023-06-24T11:58:01;3.97;;;3.03;;
27706;SDS011;36332;51.384;0.040;2023-06-24T12:00:32;4.93;;;2.90;;
27706;SDS011;36332;51.384;0.040;2023-06-24T12:03:06;4.25;;;3.35;;
27706;SDS011;36332;51.384;0.040;2023-06-24T12:05:38;4.45;;;3.47;;
27706;SDS011;36332;51.384;0.040;2023-06-24T12:08:13;5.30;;;3.55;;
27706;SDS011;36332;51.384;0.040;2023-06-24T12:10:43;4.50;;;3.42;;
27706;SDS011;36332;51.384;0.040;2023-06-24T12:13:12;7.07;;;3.67;;
27706;SDS011;36332;51.384;0.040;2023-06-24T12:15:40;7.60;;;3.50;;
27706;SDS011;36332;51.384;0.040;2023-06-24T12:18:08;5.30;;;3.55;;
27706;SDS011;36332;51.384;0.040;2023-06-24T12:20:36;5.65;;;3.50;;
27706;SDS011;36332;51.384;0.040;2023-06-24T12:23:05;5.60;;;3.63;;
27706;SDS011;36332;51.384;0.040;2023-06-24T12:25:33;6.63;;;3.20;;
27706;SDS011;36332;51.384;0.040;2023-06-24T12:28:01;4.47;;;3.50;;
27706;SDS011;36332;51.384;0.040;2023-06-24T12:30:31;6.65;;;3.28;;
27706;SDS011;36332;51.384;0.040;2023-06-24T12:33:00;4.93;;;3.70;;
27706;SDS011;36332;51.384;0.040;2023-06-24T12:35:28;4.07;;;3.47;;
27706;SDS011;36332;51.384;0.040;2023-06-24T12:37:56;6.78;;;3.60;;
27706;SDS011;36332;51.384;0.040;2023-06-24T12:40:23;5.05;;;3.45;;
27706;SDS011;36332;51.384;0.040;2023-06-24T12:42:51;4.68;;;2.90;;
27706;SDS011;36332;51.384;0.040;2023-06-24T12:45:18;4.28;;;3.10;;
27706;SDS011;36332;51.384;0.040;2023-06-24T12:47:47;6.82;;;3.47;;
27706;SDS011;36332;51.384;0.040;2023-06-24T12:50:14;5.18;;;3.15;;
27706;SDS011;36332;51.384;0.040;2023-06-24T12:52:42;4.18;;;3.10;;
27706;SDS011;36332;51.384;0.040;2023-06-24T12:55:10;4.43;;;3.00;;
27706;SDS011;36332;51.384;0.040;2023-06-24T12:57:39;3.70;;;3.35;;
27706;SDS011;36332;51.384;0.040;2023-06-24T13:00:07;6.28;;;3.70;;
27706;SDS011;36332;51.384;0.040;2023-06-24T13:02:36;5.97;;;3.30;;
27706;SDS011;36332;51.384;0.040;2023-06-24T13:05:06;4.85;;;3.45;;
27706;SDS011;36332;51.384;0.040;2023-06-24T13:07:33;7.78;;;3.30;;
27706;SDS011;36332;51.384;0.040;2023-06-24T13:10:01;5.85;;;3.00;;
27706;SDS011;36332;51.384;0.040;2023-06-24T13:12:29;7.75;;;2.80;;
27706;SDS011;36332;51.384;0.040;2023-06-24T13:14:57;5.65;;;2.83;;
27706;SDS011;36332;51.384;0.040;2023-06-24T13:17:25;8.00;;;3.10;;
27706;SDS011;36332;51.384;0.040;2023-06-24T13:19:53;7.60;;;2.80;;
27706;SDS011;36332;51.384;0.040;2023-06-24T13:22:21;4.60;;;2.58;;
27706;SDS011;36332;51.384;0.040;2023-06-24T13:24:49;3.00;;;2.38;;
27706;SDS011;36332;51.384;0.040;2023-06-24T13:27:16;4.47;;;2.67;;
27706;SDS011;36332;51.384;0.040;2023-06-24T13:29:45;4.78;;;2.75;;
27706;SDS011;36332;51.384;0.040;2023-06-24T13:32:12;3.60;;;2.80;;
27706;SDS011;36332;51.384;0.040;2023-06-24T13:34:40;4.90;;;2.70;;
27706;SDS011;36332;51.384;0.040;2023-06-24T13:37:08;5.38;;;4.35;;
27706;SDS011;36332;51.384;0.040;2023-06-24T13:39:36;5.07;;;2.95;;
27706;SDS011;36332;51.384;0.040;2023-06-24T13:42:04;3.33;;;2.75;;
27706;SDS011;36332;51.384;0.040;2023-06-24T13:44:33;5.80;;;2.97;;
27706;SDS011;36332;51.384;0.040;2023-06-24T13:47:01;3.38;;;2.47;;
27706;SDS011;36332;51.384;0.040;2023-06-24T13:49:29;4.03;;;2.58;;
27706;SDS011;36332;51.384;0.040;2023-06-24T13:51:56;9.02;;;3.13;;
27706;SDS011;36332;51.384;0.040;2023-06-24T13:54:24;4.63;;;2.83;;
27706;SDS011;36332;51.384;0.040;2023-06-24T13:56:51;4.65;;;3.38;;
27706;SDS011;36332;51.384;0.040;2023-06-24T13:59:19;5.65;;;2.97;;
27706;SDS011;36332;51.384;0.040;2023-06-24T14:01:47;5.63;;;3.78;;
27706;SDS011;36332;51.384;0.040;2023-06-24T14:04:14;7.85;;;3.58;;
27706;SDS011;36332;51.384;0.040;2023-06-24T14:06:42;4.72;;;3.10;;
27706;SDS011;36332;51.384;0.040;2023-06-24T14:09:10;3.33;;;2.92;;
27706;SDS011;36332;51.384;0.040;2023-06-24T14:11:38;6.35;;;3.42;;
27706;SDS011;36332;51.384;0.040;2023-06-24T14:14:06;3.70;;;2.63;;
27706;SDS011;36332;51.384;0.040;2023-06-24T14:16:34;5.65;;;3.03;;
27706;SDS011;36332;51.384;0.040;2023-06-24T14:19:01;10.82;;;5.65;;
27706;SDS011;36332;51.384;0.040;2023-06-24T14:21:30;6.47;;;3.20;;
27706;SDS011;36332;51.384;0.040;2023-06-24T14:23:58;3.30;;;3.00;;
27706;SDS011;36332;51.384;0.040;2023-06-24T14:26:41;4.07;;;3.17;;
27706;SDS011;36332;51.384;0.040;2023-06-24T14:29:08;6.38;;;3.22;;
27706;SDS011;36332;51.384;0.040;2023-06-24T14:31:36;4.85;;;3.45;;
27706;SDS011;36332;51.384;0.040;2023-06-24T14:34:04;6.82;;;3.05;;
27706;SDS011;36332;51.384;0.040;2023-06-24T14:36:32;5.22;;;3.25;;
27706;SDS011;36332;51.384;0.040;2023-06-24T14:38:59;8.20;;;3.38;;
27706;SDS011;36332;51.384;0.040;2023-06-24T14:41:27;6.38;;;3.25;;
27706;SDS011;36332;51.384;0.040;2023-06-24T14:43:55;7.10;;;4.47;;
27706;SDS011;36332;51.384;0.040;2023-06-24T14:46:22;5.30;;;3.42;;
27706;SDS011;36332;51.384;0.040;2023-06-24T14:48:50;4.53;;;2.47;;
27706;SDS011;36332;51.384;0.040;2023-06-24T14:51:18;3.45;;;2.58;;
27706;SDS011;36332;51.384;0.040;2023-06-24T14:53:46;3.88;;;2.80;;
27706;SDS011;36332;51.384;0.040;2023-06-24T14:56:14;4.97;;;3.00;;
27706;SDS011;36332;51.384;0.040;2023-06-24T14:58:42;5.95;;;3.55;;
27706;SDS011;36332;51.384;0.040;2023-06-24T15:01:09;4.20;;;2.97;;
27706;SDS011;36332;51.384;0.040;2023-06-24T15:03:37;6.30;;;3.75;;
27706;SDS011;36332;51.384;0.040;2023-06-24T15:06:05;13.68;;;4.72;;
27706;SDS011;36332;51.384;0.040;2023-06-24T15:08:33;8.98;;;4.72;;
27706;SDS011;36332;51.384;0.040;2023-06-24T15:11:00;8.80;;;4.35;;
27706;SDS011;36332;51.384;0.040;2023-06-24T15:13:28;6.63;;;3.92;;
27706;SDS011;36332;51.384;0.040;2023-06-24T15:15:56;5.60;;;4.50;;
27706;SDS011;36332;51.384;0.040;2023-06-24T15:18:24;12.95;;;6.15;;
27706;SDS011;36332;51.384;0.040;2023-06-24T15:20:52;6.15;;;4.63;;